Terminal Aerodrome Forecast
Issued by NWS

Home | Current Version | Previous Version | Text Only | Print | Product List | Glossary On
Versions: 1 2 3 4 5 6 7 8 9 10 11 12 13 14 15 16 17 18
000
FTUS43 KFGF 242320
TAFTVF
TAF
KTVF 242320Z 2500/2524 31012KT P6SM VCSH OVC005
     FM250100 33008KT P6SM OVC003
     FM251500 35007KT P6SM OVC008
     FM251800 36007KT P6SM OVC010=

USA.gov is the U.S. government's official web portal to all federal, state and local government web resources and services.